Latest Weather Observations for Holmes Reef

IDQ60801

Issued at 1:32 pm EST Friday 27 February 2015 (issued every 30 minutes, with the page automatically refreshed every 10 minutes)

About weather observations | Map of weather stations | Latest weather observations for QLD | Other Formats
Station Details ID: 200732 Name: HOLMES REEF Lat: -16.47 Lon: 147.87 Height: 1.9 m
Data from the previous 72 hours. | See also: Recent months at Holmes Reef
Date/Time
EST
Temp
°C
App
Temp
°C
Dew
Point
Rel
Hum
%
Delta-T
°C
Wind Press
QNH
hPa
Press
MSL
hPa
Rain
since 9 am
mm
Dir
 
Spd
km/h
Gust
km/h
Spd
kts
Gust
kts
27/01:30pm 30.0 - - - - CALM 0 6 0 3 1006.6 - -
27/01:15pm 30.0 - - - - CALM 0 2 0 1 1006.7 1006.4 -
27/01:00pm 30.4 - - - - CALM 0 2 0 1 1007.0 - -
27/12:30pm 30.1 - - - - CALM 0 2 0 1 1007.4 - -
27/12:15pm 30.3 - - - - CALM 0 - 0 - - 1007.2 -
27/12:00pm 29.7 - - - - CALM 0 4 0 2 1007.5 - -
27/11:30am 29.8 - - - - CALM 0 6 0 3 1007.5 - -
27/11:15am 30.7 - - - - CALM 0 - 0 - - 1007.3 -
27/11:00am 30.4 - - - - CALM 0 0 0 0 1007.7 - -
27/10:30am 29.3 - - - - CALM 0 6 0 3 1007.8 - -
27/10:15am 29.1 - - - - CALM 0 - 0 - - 1007.6 -
27/10:00am 29.3 - - - - CALM 0 2 0 1 1008.0 - -
27/09:30am 28.9 - - - - CALM 0 9 0 5 1008.0 - -
27/09:15am 29.2 - - - - CALM 0 - 0 - - 1007.6 -
27/09:00am 29.2 - - - - CALM 0 4 0 2 1007.8 - -
27/08:30am 28.9 - - - - ESE 11 13 6 7 1007.6 - -
27/08:15am 29.0 - - - - ESE 9 - 5 - - 1007.2 -
27/08:00am 28.8 - - - - ESE 11 15 6 8 1007.4 - -
27/07:30am 29.3 - - - - ESE 6 13 3 7 1007.4 - -
27/07:15am 29.4 - - - - CALM 0 - 0 - - 1006.9 -
27/07:00am 29.0 - - - - E 6 13 3 7 1007.1 - -
27/06:30am 28.1 - - - - E 11 13 6 7 1006.8 - -
27/06:15am 27.9 - - - - E 11 - 6 - - 1006.3 -
27/06:00am 28.0 - - - - E 11 15 6 8 1006.5 - -
27/05:30am 27.9 - - - - E 13 15 7 8 1006.2 - -
27/05:15am 27.9 - - - - E 13 - 7 - - 1005.6 -
27/05:00am 28.0 - - - - E 11 15 6 8 1005.8 - -
27/04:30am 27.9 - - - - E 17 19 9 10 1005.5 - -
27/04:15am 28.1 - - - - ESE 13 - 7 - - 1005.3 -
27/04:00am 28.0 - - - - E 15 20 8 11 1005.6 - -
27/03:30am 28.0 - - - - E 15 17 8 9 1005.7 - -
27/03:15am 28.0 - - - - E 17 - 9 - - 1005.5 -
27/03:00am 28.2 - - - - E 17 20 9 11 1005.8 - -
27/02:30am 28.2 - - - - E 17 20 9 11 1006.0 - -
27/02:15am 28.2 - - - - E 17 - 9 - - 1005.7 -
27/02:00am 28.2 - - - - E 19 22 10 12 1006.1 - -
27/01:30am 28.2 - - - - E 19 20 10 11 1006.5 - -
27/01:15am 28.2 - - - - E 19 - 10 - - 1006.3 -
27/01:00am 28.3 - - - - E 19 24 10 13 1006.7 - -
27/12:30am 28.3 - - - - E 19 20 10 11 1007.3 - -
27/12:15am 28.3 - - - - E 19 - 10 - - 1007.2 -
27/12:00am 28.4 - - - - ESE 19 20 10 11 1007.7 - -
 
Date/Time
EST
Temp
°C
App
Temp
°C
Dew
Point
Rel
Hum
%
Delta-T
°C
Wind Press
QNH
hPa
Press
MSL
hPa
Rain
since 9 am
mm
Dir
 
Spd
km/h
Gust
km/h
Spd
kts
Gust
kts
26/11:30pm 28.4 - - - - ESE 19 22 10 12 1007.9 - -
26/11:15pm 28.5 - - - - ESE 20 - 11 - - 1007.6 -
26/11:00pm 28.6 - - - - ESE 22 26 12 14 1008.1 - -
26/10:30pm 28.5 - - - - ESE 22 26 12 14 1007.9 - -
26/10:15pm 28.6 - - - - ESE 22 - 12 - - 1007.5 -
26/10:00pm 28.5 - - - - ESE 20 22 11 12 1007.7 - -
26/09:30pm 28.5 - - - - ESE 22 28 12 15 1007.3 - -
26/09:15pm 28.6 - - - - SE 24 - 13 - - 1006.9 -
26/09:00pm 28.5 - - - - SE 24 30 13 16 1007.1 - -
26/08:30pm 28.6 - - - - SE 24 30 13 16 1006.8 - -
26/08:15pm 28.6 - - - - SE 24 - 13 - - 1006.4 -
26/08:00pm 28.7 - - - - SE 26 30 14 16 1006.5 - -
26/07:30pm 28.6 - - - - SE 24 28 13 15 1006.3 - -
26/07:15pm 28.6 - - - - SSE 26 - 14 - - 1005.8 -
26/07:00pm 28.6 - - - - SE 26 28 14 15 1005.9 - -
26/06:30pm 28.8 - - - - SE 24 28 13 15 1005.6 - -
26/06:15pm 28.8 - - - - SSE 26 - 14 - - 1005.0 -
26/06:00pm 29.0 - - - - SSE 28 32 15 17 1005.1 - -
26/05:30pm 29.1 - - - - SSE 26 30 14 16 1005.2 - -
26/05:15pm 28.5 - - - - SSE 26 - 14 - - 1004.8 -
26/05:00pm 28.8 - - - - SSE 26 37 14 20 1005.0 - -
26/04:30pm 29.3 - - - - SSE 20 24 11 13 1005.0 - -
26/04:15pm 29.4 - - - - SSE 20 - 11 - - 1004.6 -
26/04:00pm 28.9 - - - - SSE 4 11 2 6 1004.9 - -
26/03:30pm 27.4 - - - - S 32 37 17 20 1005.0 - -
26/03:23pm 28.4 - - - - SSE 33 37 18 20 1004.9 - -
26/03:15pm 28.8 - - - - SE 20 - 11 - - 1004.5 -
26/03:00pm 28.7 - - - - ESE 13 17 7 9 1005.0 - -
26/02:30pm 28.4 - - - - SE 26 28 14 15 1005.1 - -
26/02:15pm 29.6 - - - - SSE 15 - 8 - - 1004.9 -
26/02:00pm 29.6 - - - - SSE 13 15 7 8 1005.4 - -
26/01:30pm 29.4 - - - - SSE 19 24 10 13 1005.8 - -
26/01:15pm 29.5 - - - - S 17 - 9 - - 1005.7 -
26/01:00pm 29.7 - - - - SSE 13 17 7 9 1006.2 - -
26/12:30pm 29.4 - - - - SSE 13 15 7 8 1006.6 - -
26/12:15pm 28.7 - - - - SE 17 - 9 - - 1006.5 -
26/12:00pm 29.5 - - - - SE 13 15 7 8 1007.1 - -
26/11:30am 29.7 - - - - SE 11 13 6 7 1007.5 - -
26/11:15am 29.3 - - - - SE 13 - 7 - - 1007.4 -
26/11:00am 29.4 - - - - SE 13 17 7 9 1007.7 - -
26/10:30am 29.2 - - - - SE 15 17 8 9 1007.8 - -
26/10:15am 29.2 - - - - SE 15 - 8 - - 1007.5 -
26/10:00am 29.2 - - - - SE 15 19 8 10 1007.9 - -
26/09:30am 28.8 - - - - CALM 0 4 0 2 1008.1 - -
26/09:15am 28.7 - - - - CALM 0 - 0 - - 1007.8 -
26/09:00am 29.1 - - - - CALM 0 0 0 0 1008.1 - -
26/08:30am 28.8 - - - - SSE 7 9 4 5 1008.2 - -
26/08:15am 28.5 - - - - S 11 - 6 - - 1007.9 -
26/08:00am 28.0 - - - - SSW 15 19 8 10 1008.2 - -
26/07:30am 28.3 - - - - S 13 15 7 8 1007.9 - -
26/07:15am 28.7 - - - - S 13 - 7 - - 1007.4 -
26/07:00am 29.0 - - - - SSE 13 17 7 9 1007.4 - -
26/06:30am 28.1 - - - - S 15 17 8 9 1007.4 - -
26/06:15am 28.1 - - - - S 15 - 8 - - 1006.8 -
26/06:00am 28.1 - - - - S 17 20 9 11 1007.0 - -
26/05:30am 28.2 - - - - SSE 17 20 9 11 1006.7 - -
26/05:15am 28.2 - - - - SSE 17 - 9 - - 1006.0 -
26/05:00am 28.1 - - - - SSE 17 19 9 10 1006.4 - -
26/04:30am 28.2 - - - - SSE 15 19 8 10 1006.4 - -
26/04:15am 28.3 - - - - SSE 17 - 9 - - 1006.1 -
26/04:00am 28.2 - - - - SSE 17 22 9 12 1006.5 - -
26/03:30am 28.3 - - - - SSE 15 19 8 10 1006.5 - -
26/03:15am 28.4 - - - - SE 17 - 9 - - 1006.1 -
26/03:00am 28.3 - - - - SE 17 20 9 11 1006.7 - -
26/02:30am 28.5 - - - - SE 19 20 10 11 1006.4 - -
26/02:15am 28.5 - - - - ESE 19 - 10 - - 1006.0 -
26/02:00am 28.2 - - - - ESE 20 24 11 13 1006.3 - -
26/01:30am 28.3 - - - - SSE 11 15 6 8 1006.5 - -
26/01:15am 28.3 - - - - SSE 11 - 6 - - 1006.4 -
26/01:00am 28.3 - - - - SE 11 15 6 8 1007.1 - -
26/12:30am 28.6 - - - - SE 11 15 6 8 1007.4 - -
26/12:15am 28.5 - - - - SE 11 - 6 - - 1007.2 -
26/12:00am 28.5 - - - - SE 11 15 6 8 1007.6 - -
 
Date/Time
EST
Temp
°C
App
Temp
°C
Dew
Point
Rel
Hum
%
Delta-T
°C
Wind Press
QNH
hPa
Press
MSL
hPa
Rain
since 9 am
mm
Dir
 
Spd
km/h
Gust
km/h
Spd
kts
Gust
kts
25/11:30pm 28.6 - - - - ESE 11 13 6 7 1007.8 - -
25/11:15pm 28.7 - - - - ESE 13 - 7 - - 1007.6 -
25/11:00pm 28.6 - - - - SE 11 13 6 7 1008.2 - -
25/10:30pm 28.8 - - - - ESE 15 19 8 10 1008.1 - -
25/10:15pm 28.7 - - - - ESE 15 - 8 - - 1007.7 -
25/10:00pm 28.8 - - - - ESE 15 19 8 10 1008.1 - -
25/09:30pm 28.7 - - - - ESE 13 19 7 10 1007.9 - -
25/09:15pm 28.8 - - - - ESE 13 - 7 - - 1007.7 -
25/09:00pm 28.9 - - - - ESE 15 19 8 10 1007.9 - -
25/08:30pm 28.9 - - - - ESE 20 24 11 13 1007.5 - -
25/08:15pm 28.9 - - - - ESE 20 - 11 - - 1006.7 -
25/08:00pm 28.9 - - - - SE 20 22 11 12 1006.9 - -
25/07:30pm 29.0 - - - - SE 20 24 11 13 1006.7 - -
25/07:15pm 28.9 - - - - SE 20 - 11 - - 1006.4 -
25/07:00pm 28.9 - - - - SE 17 22 9 12 1006.6 - -
25/06:30pm 28.9 - - - - SE 15 17 8 9 1006.5 - -
25/06:15pm 29.1 - - - - SSE 15 - 8 - - 1006.1 -
25/06:00pm 29.1 - - - - SE 15 17 8 9 1006.3 - -
25/05:30pm 29.4 - - - - SE 15 17 8 9 1006.2 - -
25/05:15pm 29.2 - - - - ESE 15 - 8 - - 1005.6 -
25/05:00pm 29.2 - - - - ESE 13 15 7 8 1005.8 - -
25/04:30pm 29.1 - - - - SE 17 19 9 10 1005.2 - -
25/04:15pm 29.3 - - - - SE 15 - 8 - - 1005.1 -
25/04:00pm 29.5 - - - - SE 15 19 8 10 1005.5 - -
25/03:30pm 29.1 - - - - SE 15 19 8 10 1005.5 - -
25/03:15pm 29.2 - - - - SE 20 - 11 - - 1005.3 -
25/03:00pm 29.2 - - - - SE 17 19 9 10 1005.9 - -
25/02:30pm 29.3 - - - - SE 15 17 8 9 1006.2 - -
25/02:15pm 29.3 - - - - ESE 15 - 8 - - 1006.1 -
25/02:00pm 29.3 - - - - ESE 13 17 7 9 1006.7 - -
25/01:30pm 29.2 - - - - E 13 15 7 8 1007.0 - -
25/01:15pm 29.1 - - - - ESE 15 - 8 - - 1006.8 -
25/01:00pm 29.0 - - - - ESE 13 17 7 9 1007.2 - -
25/12:30pm 29.0 - - - - ESE 13 15 7 8 1007.9 - -
25/12:15pm 29.2 - - - - E 13 - 7 - - 1007.9 -
25/12:00pm 29.0 - - - - E 13 15 7 8 1008.3 - -
25/11:15am 29.0 - - - - ESE 17 - 9 - - 1008.1 -
25/11:00am 29.0 - - - - ESE 17 20 9 11 1008.4 - -
25/10:30am 29.2 - - - - E 19 22 10 12 1008.5 - -
25/10:15am 29.1 - - - - E 20 - 11 - - 1008.1 -
25/10:00am 29.0 - - - - ESE 22 24 12 13 1008.3 - -
25/09:30am 29.1 - - - - ESE 24 26 13 14 1008.3 - -
25/09:15am 29.1 - - - - E 24 - 13 - - 1008.2 -
25/09:00am 29.0 - - - - E 22 26 12 14 1008.6 - -
25/08:30am 29.2 - - - - E 22 26 12 14 1008.7 - -
25/08:15am 29.0 - - - - ESE 22 - 12 - - 1008.0 -
25/08:00am 29.1 - - - - E 20 24 11 13 1008.1 - -
25/07:30am 29.0 - - - - ESE 20 26 11 14 1007.5 - -
25/07:15am 28.9 - - - - ESE 22 - 12 - - 1007.0 -
25/07:00am 29.0 - - - - ESE 20 24 11 13 1007.4 - -
25/06:30am 28.8 - - - - ESE 13 17 7 9 1007.5 - -
25/06:15am 28.8 - - - - ESE 13 - 7 - - 1007.3 -
25/06:00am 28.8 - - - - ESE 7 15 4 8 1007.5 - -
25/05:30am 28.6 - - - - CALM 0 6 0 3 1007.3 - -
25/05:15am 28.6 - - - - CALM 0 - 0 - - 1007.0 -
25/05:00am 28.6 - - - - CALM 0 4 0 2 1007.2 - -
25/04:30am 28.6 - - - - CALM 0 2 0 1 1007.0 - -
25/04:15am 28.7 - - - - CALM 0 - 0 - - 1006.6 -
25/04:00am 28.6 - - - - SE 2 6 1 3 1006.6 - -
25/03:30am 28.6 - - - - CALM 0 4 0 2 1006.6 - -
25/03:15am 28.6 - - - - SE 2 - 1 - - 1006.3 -
25/03:00am 28.7 - - - - CALM 0 2 0 1 1006.5 - -
25/02:30am 28.6 - - - - CALM 0 6 0 3 1006.4 - -
25/02:15am 28.5 - - - - CALM 0 - 0 - - 1006.1 -
25/02:00am 28.6 - - - - CALM 0 2 0 1 1006.5 - -
25/01:30am 28.7 - - - - CALM 0 4 0 2 1006.8 - -
25/01:15am 28.7 - - - - CALM 0 - 0 - - 1006.7 -
25/01:00am 28.8 - - - - CALM 0 2 0 1 1007.0 - -
25/12:30am 28.8 - - - - CALM 0 2 0 1 1007.2 - -
25/12:15am 28.8 - - - - CALM 0 - 0 - - 1007.1 -
25/12:00am 28.9 - - - - CALM 0 4 0 2 1007.6 - -
 
Date/Time
EST
Temp
°C
App
Temp
°C
Dew
Point
Rel
Hum
%
Delta-T
°C
Wind Press
QNH
hPa
Press
MSL
hPa
Rain
since 9 am
mm
Dir
 
Spd
km/h
Gust
km/h
Spd
kts
Gust
kts
24/11:30pm 28.9 - - - - CALM 0 2 0 1 1007.8 - -
24/11:15pm 29.0 - - - - CALM 0 - 0 - - 1007.8 -
24/11:00pm 29.0 - - - - CALM 0 6 0 3 1008.1 - -
24/10:30pm 29.1 - - - - CALM 0 4 0 2 1008.3 - -
24/10:15pm 29.2 - - - - CALM 0 - 0 - - 1008.1 -
24/10:00pm 29.3 - - - - CALM 0 0 0 0 1008.4 - -
24/09:30pm 29.2 - - - - CALM 0 2 0 1 1008.1 - -
24/09:15pm 29.2 - - - - CALM 0 - 0 - - 1007.6 -
24/09:00pm 29.3 - - - - CALM 0 4 0 2 1007.9 - -
24/08:30pm 29.2 - - - - CALM 0 2 0 1 1007.8 - -
24/08:15pm 29.1 - - - - WNW 2 - 1 - - 1007.4 -
24/08:00pm 29.1 - - - - CALM 0 7 0 4 1007.7 - -
24/07:30pm 29.4 - - - - CALM 0 6 0 3 1007.5 - -
24/07:15pm 29.4 - - - - W 2 - 1 - - 1007.1 -
24/07:00pm 29.4 - - - - CALM 0 4 0 2 1007.3 - -
24/06:30pm 29.5 - - - - W 9 11 5 6 1006.9 - -
24/06:15pm 29.6 - - - - W 9 - 5 - - 1006.2 -
24/06:00pm 30.0 - - - - W 6 11 3 6 1006.4 - -
24/05:30pm 29.8 - - - - W 9 11 5 6 1006.0 - -
24/05:15pm 29.8 - - - - W 9 - 5 - - 1005.7 -
24/05:00pm 29.9 - - - - W 11 15 6 8 1005.9 - -
24/04:30pm 29.8 - - - - W 11 13 6 7 1006.0 - -
24/04:15pm 29.5 - - - - W 15 - 8 - - 1005.8 -
24/04:00pm 29.7 - - - - W 15 17 8 9 1006.1 - -
24/03:30pm 29.7 - - - - W 13 17 7 9 1006.4 - -
24/03:15pm 29.9 - - - - W 15 - 8 - - 1006.1 -
24/03:00pm 30.0 - - - - W 15 19 8 10 1006.6 - -
24/02:30pm 29.8 - - - - WNW 17 19 9 10 1006.8 - -
24/02:15pm 29.9 - - - - WNW 17 - 9 - - 1006.6 -
24/02:00pm 29.8 - - - - WNW 15 17 8 9 1006.9 - -

Other Formats:

Comma delimited format used in spreadsheet applications
http://www.bom.gov.au/fwo/IDQ60801/IDQ60801.94289.axf

JavaScript Object Notation format (JSON) in row-major order
http://www.bom.gov.au/fwo/IDQ60801/IDQ60801.94289.json